Time;durP1;ratioP1;P1;durP2;ratioP2;P2;SDS_P1;SDS_P2;PMS_P1;PMS_P2;Temp;Humidity;BMP_temperature;BMP_pressure;BME280_temperature;BME280_humidity;BME280_pressure;Samples;Min_cycle;Max_cycle;Signal;HPM_P1;HPM_P2
2022/02/14 00:00:39;;;;;;;4.50;3.20;;;6.30;99.90;;;;;;5029757;28;20749;-51
2022/02/14 00:03:11;;;;;;;6.03;3.13;;;6.30;99.90;;;;;;5041713;28;20698;-54
2022/02/14 00:05:39;;;;;;;3.63;2.83;;;6.30;99.90;;;;;;5027127;28;20193;-51
2022/02/14 00:08:07;;;;;;;3.63;2.50;;;6.30;99.90;;;;;;5028789;28;20267;-52
2022/02/14 00:10:37;;;;;;;3.08;2.35;;;6.30;99.90;;;;;;5029189;28;20213;-51
2022/02/14 00:13:07;;;;;;;3.47;2.90;;;6.30;99.90;;;;;;5026183;28;20283;-52
2022/02/14 00:15:35;;;;;;;3.38;2.97;;;6.30;99.90;;;;;;5045727;28;20237;-51
2022/02/14 00:18:04;;;;;;;4.57;3.13;;;6.30;99.90;;;;;;5048243;28;20674;-52
2022/02/14 00:20:32;;;;;;;7.28;2.30;;;6.30;99.90;;;;;;5011353;28;20772;-52
2022/02/14 00:23:01;;;;;;;3.17;2.47;;;6.30;99.90;;;;;;5034821;28;20261;-53
2022/02/14 00:25:29;;;;;;;3.22;2.70;;;6.30;99.90;;;;;;5032102;28;20193;-54
2022/02/14 00:27:57;;;;;;;3.50;2.75;;;6.30;99.90;;;;;;5011837;28;20226;-51
2022/02/14 00:30:27;;;;;;;2.80;2.50;;;6.30;99.90;;;;;;5024066;28;20232;-52
2022/02/14 00:32:55;;;;;;;3.10;2.58;;;6.30;99.90;;;;;;5028896;28;20312;-54
2022/02/14 00:35:23;;;;;;;4.13;2.80;;;6.30;99.90;;;;;;5026024;28;20217;-51
2022/02/14 00:37:53;;;;;;;3.53;3.10;;;6.30;99.90;;;;;;5028363;28;20240;-54
2022/02/14 00:40:21;;;;;;;3.33;2.85;;;6.30;99.90;;;;;;5028778;28;20639;-52
2022/02/14 00:42:50;;;;;;;3.35;2.50;;;6.30;99.90;;;;;;5030922;28;20454;-52
2022/02/14 00:45:18;;;;;;;4.93;3.10;;;6.30;99.90;;;;;;5017966;28;20239;-51
2022/02/14 00:47:48;;;;;;;3.40;2.95;;;6.30;99.90;;;;;;5028441;28;20225;-51
2022/02/14 00:50:17;;;;;;;4.30;2.72;;;6.30;99.90;;;;;;5012299;28;20245;-49
2022/02/14 00:52:45;;;;;;;2.60;2.40;;;6.30;99.90;;;;;;5013974;28;20213;-52
2022/02/14 00:55:15;;;;;;;3.42;2.90;;;6.30;99.90;;;;;;5028422;28;20217;-53
2022/02/14 00:57:43;;;;;;;7.22;2.75;;;6.30;99.90;;;;;;5018153;28;20217;-53
2022/02/14 01:00:15;;;;;;;2.05;1.85;;;6.30;99.90;;;;;;5028808;28;20239;-55
2022/02/14 01:02:43;;;;;;;4.45;2.97;;;6.30;99.90;;;;;;5028225;28;20271;-54
2022/02/14 01:05:13;;;;;;;3.25;2.35;;;6.30;99.90;;;;;;5009715;28;20593;-54
2022/02/14 01:07:41;;;;;;;5.40;4.90;;;6.30;99.90;;;;;;5028156;28;20307;-53
2022/02/14 01:10:11;;;;;;;4.40;2.42;;;6.30;99.90;;;;;;5028485;28;20213;-54
2022/02/14 01:12:41;;;;;;;2.42;2.22;;;6.30;99.90;;;;;;5021745;28;20711;-51
2022/02/14 01:15:10;;;;;;;2.80;2.22;;;6.30;99.90;;;;;;5040392;28;20254;-51
2022/02/14 01:17:39;;;;;;;3.63;2.40;;;6.30;99.90;;;;;;5047815;28;20224;-53
2022/02/14 01:20:09;;;;;;;3.17;2.85;;;6.30;99.90;;;;;;5017821;28;20280;-53
2022/02/14 01:22:39;;;;;;;3.20;2.80;;;6.30;99.90;;;;;;5025891;28;20307;-51
2022/02/14 01:25:10;;;;;;;4.10;2.50;;;6.30;99.90;;;;;;5031690;28;20189;-52
2022/02/14 01:27:38;;;;;;;2.70;2.45;;;6.30;99.90;;;;;;5021884;28;20229;-54
2022/02/14 01:30:08;;;;;;;3.17;2.80;;;6.30;99.90;;;;;;5012397;28;20751;-53
2022/02/14 01:32:37;;;;;;;4.75;2.70;;;6.30;99.90;;;;;;5023959;28;20252;-52
2022/02/14 01:35:06;;;;;;;4.78;2.63;;;6.30;99.90;;;;;;5029879;28;20244;-54
2022/02/14 01:37:38;;;;;;;4.65;2.45;;;6.30;99.90;;;;;;5011773;28;20245;-54
2022/02/14 01:40:10;;;;;;;2.83;2.10;;;6.30;99.90;;;;;;5024588;28;20209;-52
2022/02/14 01:42:41;;;;;;;3.10;2.38;;;6.30;99.90;;;;;;5011630;28;20218;-52
2022/02/14 01:45:10;;;;;;;2.58;1.98;;;6.30;99.90;;;;;;5025571;28;20661;-52
2022/02/14 01:47:40;;;;;;;4.65;2.80;;;6.30;99.90;;;;;;5031099;28;20557;-55
2022/02/14 01:50:11;;;;;;;2.85;2.38;;;6.30;99.90;;;;;;5030509;28;20228;-52
2022/02/14 01:52:40;;;;;;;3.65;2.38;;;6.30;99.90;;;;;;5012912;28;20237;-53
2022/02/14 01:55:16;;;;;;;3.08;2.47;;;6.30;99.90;;;;;;5031151;28;20201;-54
2022/02/14 01:57:44;;;;;;;2.33;2.13;;;6.30;99.90;;;;;;5008878;28;20228;-53
2022/02/14 02:00:16;;;;;;;3.95;2.58;;;6.30;99.90;;;;;;5018759;28;20243;-52
2022/02/14 02:02:45;;;;;;;4.50;2.33;;;6.30;99.90;;;;;;5013262;28;20667;-52
2022/02/14 02:05:13;;;;;;;3.15;2.40;;;6.30;99.90;;;;;;5029514;28;20277;-53
2022/02/14 02:07:42;;;;;;;2.72;2.20;;;6.30;99.90;;;;;;5029627;28;20251;-51
2022/02/14 02:10:16;;;;;;;2.72;2.53;;;6.30;99.90;;;;;;5031441;28;20223;-54
2022/02/14 02:12:53;;;;;;;2.92;2.30;;;6.30;99.90;;;;;;5031039;28;20700;-51
2022/02/14 02:15:22;;;;;;;4.65;2.85;;;6.30;99.90;;;;;;5029625;28;20672;-54
2022/02/14 02:17:50;;;;;;;3.00;2.20;;;6.30;99.90;;;;;;5031075;28;20221;-51
2022/02/14 02:20:19;;;;;;;3.53;2.03;;;6.30;99.90;;;;;;5013987;28;20596;-52
2022/02/14 02:22:51;;;;;;;3.35;2.40;;;6.30;99.90;;;;;;5026153;28;20787;-52
2022/02/14 02:25:21;;;;;;;5.00;2.40;;;6.30;99.90;;;;;;5046528;28;20216;-51
2022/02/14 02:27:49;;;;;;;2.60;2.35;;;6.30;99.90;;;;;;5041389;28;20583;-52
2022/02/14 02:30:18;;;;;;;3.88;2.15;;;6.40;99.90;;;;;;5030708;28;20221;-51
2022/02/14 02:32:47;;;;;;;3.45;2.40;;;6.30;99.90;;;;;;5030209;28;20224;-52
2022/02/14 02:35:15;;;;;;;2.42;2.20;;;6.40;99.90;;;;;;5028925;28;20494;-51
2022/02/14 02:37:43;;;;;;;4.55;2.47;;;6.40;99.90;;;;;;5029891;28;20315;-52
2022/02/14 02:40:13;;;;;;;3.40;2.20;;;6.40;99.90;;;;;;5030983;28;20298;-52
2022/02/14 02:42:42;;;;;;;2.40;2.00;;;6.40;99.90;;;;;;5017652;28;20253;-52
2022/02/14 02:45:11;;;;;;;2.38;2.10;;;6.30;99.90;;;;;;5006622;28;20185;-55
2022/02/14 02:47:41;;;;;;;3.40;1.90;;;6.40;99.90;;;;;;5030464;28;20225;-51
2022/02/14 02:50:10;;;;;;;2.28;2.03;;;6.40;99.90;;;;;;5039685;28;20212;-52
2022/02/14 02:52:38;;;;;;;3.33;2.88;;;6.40;99.90;;;;;;5029995;28;20224;-54
2022/02/14 02:55:07;;;;;;;4.22;2.10;;;6.40;99.90;;;;;;5043502;28;20227;-54
2022/02/14 02:57:35;;;;;;;3.08;2.60;;;6.40;99.90;;;;;;5027226;28;20295;-51
2022/02/14 03:00:06;;;;;;;3.17;2.65;;;6.40;99.90;;;;;;5029375;28;20250;-51
2022/02/14 03:02:35;;;;;;;3.15;2.90;;;6.40;99.90;;;;;;5049972;28;20220;-52
2022/02/14 03:05:03;;;;;;;2.47;2.28;;;6.40;99.90;;;;;;5019816;28;20281;-52
2022/02/14 03:07:31;;;;;;;2.55;2.35;;;6.40;99.90;;;;;;5010337;28;20252;-51
2022/02/14 03:10:00;;;;;;;2.28;2.08;;;6.40;99.90;;;;;;5028751;28;20205;-53
2022/02/14 03:12:28;;;;;;;3.30;2.47;;;6.40;99.90;;;;;;5029646;28;20275;-52
2022/02/14 03:14:56;;;;;;;3.10;2.42;;;6.40;99.90;;;;;;5027168;28;20258;-51
2022/02/14 03:17:26;;;;;;;2.20;1.83;;;6.40;99.90;;;;;;5029421;28;20306;-51
2022/02/14 03:19:54;;;;;;;2.35;2.20;;;6.40;99.90;;;;;;5023954;28;20304;-53
2022/02/14 03:22:22;;;;;;;3.75;2.22;;;6.40;99.90;;;;;;5029470;28;20231;-54
2022/02/14 03:24:51;;;;;;;3.17;2.92;;;6.40;99.90;;;;;;5046255;28;20313;-51
2022/02/14 03:27:19;;;;;;;3.95;2.42;;;6.40;99.90;;;;;;5039500;28;20300;-52
2022/02/14 03:29:47;;;;;;;2.45;2.25;;;6.40;99.90;;;;;;5029964;28;20217;-53
2022/02/14 03:32:15;;;;;;;4.32;2.40;;;6.40;99.90;;;;;;5029428;28;20213;-53
2022/02/14 03:34:48;;;;;;;2.97;2.00;;;6.40;99.90;;;;;;4999700;28;20736;-52
2022/02/14 03:37:16;;;;;;;3.15;2.13;;;6.40;99.90;;;;;;5028143;28;20233;-51
2022/02/14 03:39:47;;;;;;;2.60;2.40;;;6.40;99.90;;;;;;5030034;28;20679;-53
2022/02/14 03:42:15;;;;;;;2.63;2.13;;;6.40;99.90;;;;;;5022410;28;20237;-52
2022/02/14 03:44:43;;;;;;;3.13;2.83;;;6.40;99.90;;;;;;5009234;28;20194;-53
2022/02/14 03:47:11;;;;;;;2.20;2.00;;;6.40;99.90;;;;;;5026909;28;20303;-54
2022/02/14 03:49:39;;;;;;;2.08;1.88;;;6.40;99.90;;;;;;5017810;28;20217;-51
2022/02/14 03:52:09;;;;;;;2.40;2.20;;;6.40;99.90;;;;;;5026763;28;24553;-53
2022/02/14 03:54:37;;;;;;;4.55;3.00;;;6.40;99.90;;;;;;5033657;28;20216;-51
2022/02/14 03:57:05;;;;;;;2.80;2.35;;;6.40;99.90;;;;;;5049002;28;20648;-51
2022/02/14 03:59:35;;;;;;;2.50;1.95;;;6.40;99.90;;;;;;5026903;28;20232;-52
2022/02/14 04:02:04;;;;;;;2.13;1.92;;;6.40;99.90;;;;;;5048416;28;20595;-51
2022/02/14 04:04:33;;;;;;;3.97;1.80;;;6.40;99.90;;;;;;5025561;28;20208;-52
2022/02/14 04:07:01;;;;;;;2.25;2.05;;;6.40;99.90;;;;;;5028977;28;20197;-51
2022/02/14 04:09:31;;;;;;;5.20;1.80;;;6.40;99.90;;;;;;5028896;28;20295;-52
2022/02/14 04:11:59;;;;;;;2.38;2.17;;;6.40;99.90;;;;;;5025490;28;20192;-51
2022/02/14 04:14:27;;;;;;;2.22;2.00;;;6.40;99.90;;;;;;5018447;28;20185;-52
2022/02/14 04:16:55;;;;;;;2.50;2.20;;;6.40;99.90;;;;;;5028365;28;20202;-50
2022/02/14 04:19:23;;;;;;;2.38;1.80;;;6.40;99.90;;;;;;5020165;28;20234;-53
2022/02/14 04:21:51;;;;;;;2.53;2.05;;;6.40;99.90;;;;;;5046397;28;20193;-52
2022/02/14 04:24:19;;;;;;;2.75;1.65;;;6.40;99.90;;;;;;5049870;28;20185;-52
2022/02/14 04:26:49;;;;;;;2.10;1.88;;;6.40;99.90;;;;;;5043371;28;20227;-52
2022/02/14 04:29:17;;;;;;;2.17;1.75;;;6.40;99.90;;;;;;5029873;28;20216;-53
2022/02/14 04:31:45;;;;;;;1.73;1.63;;;6.40;99.90;;;;;;5030637;28;20223;-54
2022/02/14 04:34:18;;;;;;;5.43;2.53;;;6.40;99.90;;;;;;5028354;28;20240;-53
2022/02/14 04:36:46;;;;;;;2.22;1.98;;;6.40;99.90;;;;;;5030474;28;20237;-54
2022/02/14 04:39:15;;;;;;;3.75;2.30;;;6.40;99.90;;;;;;5029980;28;20231;-53
2022/02/14 04:41:44;;;;;;;2.28;2.08;;;6.40;99.90;;;;;;5027515;28;20643;-52
2022/02/14 04:44:14;;;;;;;2.88;1.90;;;6.40;99.90;;;;;;5013464;28;20220;-52
2022/02/14 04:46:43;;;;;;;2.55;2.00;;;6.40;99.90;;;;;;5029302;28;20213;-54
2022/02/14 04:49:12;;;;;;;2.83;2.40;;;6.40;99.90;;;;;;5024859;28;20223;-53
2022/02/14 04:51:40;;;;;;;4.40;2.15;;;6.40;99.90;;;;;;5029106;28;20208;-52
2022/02/14 04:54:08;;;;;;;1.90;1.70;;;6.40;99.90;;;;;;5029427;28;20244;-54
2022/02/14 04:56:40;;;;;;;2.72;1.92;;;6.40;99.90;;;;;;5030619;28;20213;-54
2022/02/14 04:59:09;;;;;;;3.30;2.35;;;6.40;99.90;;;;;;5039057;28;20212;-52
2022/02/14 05:01:41;;;;;;;2.50;2.22;;;6.40;99.90;;;;;;5052936;28;20216;-51
2022/02/14 05:04:09;;;;;;;2.28;1.50;;;6.40;99.90;;;;;;5033060;28;20271;-52
2022/02/14 05:06:41;;;;;;;1.85;1.40;;;6.40;99.90;;;;;;5032426;28;20274;-51
2022/02/14 05:09:11;;;;;;;2.15;1.75;;;6.40;99.90;;;;;;5031177;28;20588;-51
2022/02/14 05:11:40;;;;;;;2.40;2.20;;;6.40;99.90;;;;;;5032686;28;20193;-52
2022/02/14 05:14:09;;;;;;;2.00;1.70;;;6.40;99.90;;;;;;5019140;28;20229;-51
2022/02/14 05:16:37;;;;;;;1.67;1.38;;;6.40;99.90;;;;;;5032681;28;20217;-52
2022/02/14 05:19:08;;;;;;;3.55;1.73;;;6.40;99.90;;;;;;5030102;28;20610;-53
2022/02/14 05:21:36;;;;;;;2.95;2.03;;;6.40;99.90;;;;;;5031925;28;20181;-52
2022/02/14 05:24:05;;;;;;;3.42;2.40;;;6.40;99.90;;;;;;5031453;28;20287;-53
2022/02/14 05:26:33;;;;;;;2.25;1.85;;;6.40;99.90;;;;;;5032537;28;20188;-53
2022/02/14 05:29:02;;;;;;;1.80;1.70;;;6.50;99.90;;;;;;5012664;28;20221;-54
2022/02/14 05:31:30;;;;;;;2.00;1.75;;;6.50;99.90;;;;;;5012542;28;20228;-52
2022/02/14 05:33:58;;;;;;;2.40;1.80;;;6.50;99.90;;;;;;5023527;28;20222;-53
2022/02/14 05:36:27;;;;;;;2.20;2.00;;;6.50;99.90;;;;;;5019677;28;20193;-53
2022/02/14 05:38:56;;;;;;;3.35;2.10;;;6.50;99.90;;;;;;5031630;28;20225;-52
2022/02/14 05:41:24;;;;;;;2.08;1.92;;;6.50;99.90;;;;;;5030117;28;20212;-52
2022/02/14 05:43:52;;;;;;;1.98;1.80;;;6.50;99.90;;;;;;5030937;28;20309;-53
2022/02/14 05:46:20;;;;;;;3.67;2.13;;;6.50;99.90;;;;;;5031361;28;20213;-53
2022/02/14 05:48:49;;;;;;;4.85;2.10;;;6.50;99.90;;;;;;5012357;28;20216;-52
2022/02/14 05:51:20;;;;;;;2.33;1.70;;;6.50;99.90;;;;;;5049269;28;20208;-51
2022/02/14 05:53:49;;;;;;;2.20;1.83;;;6.50;99.90;;;;;;5041301;28;20864;-53
2022/02/14 05:56:18;;;;;;;2.50;2.10;;;6.50;99.90;;;;;;5031641;28;20604;-52
2022/02/14 05:58:46;;;;;;;1.50;1.40;;;6.50;99.90;;;;;;5020735;28;20214;-51
2022/02/14 06:01:14;;;;;;;2.53;2.25;;;6.50;99.90;;;;;;5045977;28;20239;-53
2022/02/14 06:03:42;;;;;;;3.65;2.15;;;6.50;99.90;;;;;;5046164;28;20275;-52
2022/02/14 06:06:10;;;;;;;2.40;2.20;;;6.50;99.90;;;;;;5013321;28;20215;-52
2022/02/14 06:08:38;;;;;;;2.03;1.83;;;6.50;99.90;;;;;;5030692;28;20316;-51
2022/02/14 06:11:08;;;;;;;1.80;1.30;;;6.50;99.90;;;;;;5047320;28;20643;-51
2022/02/14 06:13:36;;;;;;;3.15;1.45;;;6.50;99.90;;;;;;5023657;28;20696;-53
2022/02/14 06:16:05;;;;;;;2.40;1.50;;;6.50;99.90;;;;;;5026836;28;20189;-54
2022/02/14 06:18:33;;;;;;;1.80;1.70;;;6.50;99.90;;;;;;5028164;28;20276;-52
2022/02/14 06:21:01;;;;;;;1.92;1.30;;;6.50;99.90;;;;;;5026930;28;20213;-54
2022/02/14 06:23:29;;;;;;;1.75;1.63;;;6.50;99.90;;;;;;5032240;28;20577;-51
2022/02/14 06:25:58;;;;;;;1.92;1.55;;;6.50;99.90;;;;;;5050836;28;20621;-52
2022/02/14 06:28:28;;;;;;;1.70;1.60;;;6.50;99.90;;;;;;5036286;28;20235;-52
2022/02/14 06:30:56;;;;;;;4.10;1.50;;;6.50;99.90;;;;;;5031120;28;20228;-52
2022/02/14 06:33:25;;;;;;;2.75;1.60;;;6.50;99.90;;;;;;5028983;28;20221;-52
2022/02/14 06:35:53;;;;;;;1.98;1.77;;;6.50;99.90;;;;;;5030205;28;20607;-53
2022/02/14 06:38:25;;;;;;;2.75;1.70;;;6.50;99.90;;;;;;5047925;28;20310;-52
2022/02/14 06:40:56;;;;;;;1.80;1.70;;;6.50;99.90;;;;;;5033236;28;20213;-51
2022/02/14 06:43:25;;;;;;;1.40;1.30;;;6.50;99.90;;;;;;5023895;28;20299;-50
2022/02/14 06:45:55;;;;;;;1.95;1.85;;;6.50;99.90;;;;;;5050273;28;20219;-53
2022/02/14 06:48:23;;;;;;;2.35;1.50;;;6.50;99.90;;;;;;5013024;28;20221;-51
2022/02/14 06:50:57;;;;;;;2.20;1.90;;;6.50;99.90;;;;;;5039208;28;20714;-52
2022/02/14 06:53:29;;;;;;;1.88;1.35;;;6.50;99.90;;;;;;5038027;28;20216;-53
2022/02/14 06:56:00;;;;;;;1.33;1.20;;;6.50;99.90;;;;;;5027529;28;20672;-54
2022/02/14 06:58:29;;;;;;;3.00;1.70;;;6.50;99.90;;;;;;5029312;28;20249;-50
2022/02/14 07:01:00;;;;;;;1.60;1.35;;;6.50;99.90;;;;;;5044244;28;20216;-53
2022/02/14 07:03:29;;;;;;;1.80;1.50;;;6.50;99.90;;;;;;5024868;28;20250;-51
2022/02/14 07:05:58;;;;;;;4.45;1.98;;;6.50;99.90;;;;;;5030257;28;20183;-52
2022/02/14 07:08:28;;;;;;;2.10;1.70;;;6.50;99.90;;;;;;5042176;28;20218;-52
2022/02/14 07:11:00;;;;;;;3.10;2.00;;;6.50;99.90;;;;;;5050177;28;20751;-51
2022/02/14 07:13:29;;;;;;;1.60;1.50;;;6.50;99.90;;;;;;5024840;28;20232;-51
2022/02/14 07:16:00;;;;;;;1.83;1.50;;;6.50;99.90;;;;;;5029525;28;20786;-52
2022/02/14 07:18:30;;;;;;;1.95;1.48;;;6.50;99.90;;;;;;5026328;28;20627;-53
2022/02/14 07:21:04;;;;;;;1.60;1.50;;;6.50;99.90;;;;;;5015096;28;20223;-53
2022/02/14 07:23:41;;;;;;;2.10;1.63;;;6.50;99.90;;;;;;5033689;28;20265;-53
2022/02/14 07:26:09;;;;;;;1.73;1.63;;;6.50;99.90;;;;;;5049752;28;20200;-51
2022/02/14 07:28:38;;;;;;;1.60;1.50;;;6.50;99.90;;;;;;5027319;28;20751;-53
2022/02/14 07:31:09;;;;;;;1.50;1.40;;;6.50;99.90;;;;;;5011151;28;20558;-54
2022/02/14 07:33:37;;;;;;;2.45;1.38;;;6.50;99.90;;;;;;5006445;28;20987;-53
2022/02/14 07:36:06;;;;;;;2.05;1.40;;;6.50;99.90;;;;;;5017600;28;20192;-52
2022/02/14 07:38:35;;;;;;;2.08;1.70;;;6.50;99.90;;;;;;5027081;28;20221;-53
2022/02/14 07:41:03;;;;;;;1.73;1.63;;;6.50;99.90;;;;;;5027916;28;20204;-51
2022/02/14 07:43:32;;;;;;;4.43;1.70;;;6.50;99.90;;;;;;5012831;28;20310;-52
2022/02/14 07:46:01;;;;;;;2.00;1.40;;;6.50;99.90;;;;;;5034716;28;20265;-53
2022/02/14 07:48:34;;;;;;;2.05;1.75;;;6.50;99.90;;;;;;5025888;28;20252;-52
2022/02/14 07:51:02;;;;;;;3.47;1.90;;;6.60;99.90;;;;;;5036637;28;20204;-52
2022/02/14 07:53:31;;;;;;;1.90;1.60;;;6.60;99.90;;;;;;5037635;28;20591;-53
2022/02/14 07:55:59;;;;;;;1.63;1.52;;;6.60;99.90;;;;;;5024752;28;20189;-52
2022/02/14 07:58:29;;;;;;;1.45;1.35;;;6.60;99.90;;;;;;5031029;28;20217;-52
2022/02/14 08:00:57;;;;;;;1.95;1.50;;;6.60;99.90;;;;;;5041280;28;20262;-52
2022/02/14 08:03:26;;;;;;;1.23;1.13;;;6.60;99.90;;;;;;5045331;28;20228;-53
2022/02/14 08:06:00;;;;;;;1.20;1.10;;;6.60;99.90;;;;;;5017772;28;20189;-52
2022/02/14 08:08:30;;;;;;;1.85;1.60;;;6.60;99.90;;;;;;5035880;28;20282;-53
2022/02/14 08:10:59;;;;;;;1.63;1.52;;;6.60;99.90;;;;;;5029524;28;20651;-52
2022/02/14 08:13:29;;;;;;;2.05;1.75;;;6.60;99.90;;;;;;5003961;28;20217;-54
2022/02/14 08:15:59;;;;;;;2.55;1.60;;;6.60;99.90;;;;;;5009547;28;20200;-52
2022/02/14 08:18:29;;;;;;;1.58;1.48;;;6.60;99.90;;;;;;5008324;28;20225;-51
2022/02/14 08:21:00;;;;;;;1.70;1.58;;;6.60;99.90;;;;;;5009589;28;20727;-54
2022/02/14 08:23:28;;;;;;;1.85;1.45;;;6.60;99.90;;;;;;5006875;28;20621;-51
2022/02/14 08:25:57;;;;;;;3.85;1.60;;;6.60;99.90;;;;;;5011631;28;20627;-53
2022/02/14 08:28:26;;;;;;;1.40;1.30;;;6.60;99.90;;;;;;5023483;28;20735;-51
2022/02/14 08:30:55;;;;;;;2.40;1.63;;;6.60;99.90;;;;;;5010775;28;20724;-54
2022/02/14 08:33:26;;;;;;;2.38;1.55;;;6.60;99.90;;;;;;5012060;28;20217;-50
2022/02/14 08:35:55;;;;;;;2.70;1.65;;;6.60;99.90;;;;;;5013439;28;20213;-53
2022/02/14 08:38:25;;;;;;;1.60;1.50;;;6.60;99.90;;;;;;5022138;28;20224;-51
2022/02/14 08:40:54;;;;;;;1.83;1.30;;;6.60;99.90;;;;;;5033043;28;20586;-52
2022/02/14 08:43:23;;;;;;;3.75;2.13;;;6.60;99.90;;;;;;5025530;28;20227;-53
2022/02/14 08:46:05;;;;;;;1.30;1.20;;;6.60;99.90;;;;;;5013221;28;20190;-53
2022/02/14 08:48:34;;;;;;;1.60;1.38;;;6.60;99.90;;;;;;5011290;28;20252;-52
2022/02/14 08:51:04;;;;;;;1.50;1.40;;;6.60;99.90;;;;;;5013496;28;20558;-51
2022/02/14 08:53:37;;;;;;;1.20;1.10;;;6.60;99.90;;;;;;5040500;28;20679;-53
2022/02/14 08:56:08;;;;;;;1.50;1.23;;;6.60;99.90;;;;;;5041192;28;20190;-54
2022/02/14 08:58:41;;;;;;;1.85;1.15;;;6.60;99.90;;;;;;5016038;28;20280;-52
2022/02/14 09:01:13;;;;;;;1.30;1.10;;;6.60;99.90;;;;;;5047007;28;20298;-54
2022/02/14 09:03:42;;;;;;;1.92;1.38;;;6.60;99.90;;;;;;5034530;28;20209;-51
2022/02/14 09:06:12;;;;;;;1.85;1.60;;;6.70;99.90;;;;;;5031453;28;20191;-51
2022/02/14 09:08:42;;;;;;;1.35;1.23;;;6.60;99.90;;;;;;5031998;28;20220;-54
2022/02/14 09:11:10;;;;;;;1.80;1.63;;;6.70;99.90;;;;;;5032559;28;20224;-52
2022/02/14 09:13:39;;;;;;;2.20;1.40;;;6.70;99.90;;;;;;5028964;28;20221;-52
2022/02/14 09:16:08;;;;;;;2.00;1.40;;;6.70;99.90;;;;;;5032340;28;20189;-54
2022/02/14 09:18:39;;;;;;;1.80;1.27;;;6.70;99.90;;;;;;5028621;28;20224;-54
2022/02/14 09:21:09;;;;;;;2.13;1.05;;;6.70;99.90;;;;;;5013835;28;20755;-54
2022/02/14 09:23:39;;;;;;;2.03;1.52;;;6.70;99.90;;;;;;5011293;28;20213;-51
2022/02/14 09:26:10;;;;;;;1.67;1.58;;;6.70;99.90;;;;;;5019723;28;20204;-52
2022/02/14 09:28:39;;;;;;;1.30;1.20;;;6.70;99.90;;;;;;5028984;28;20212;-53
2022/02/14 09:31:07;;;;;;;1.95;1.55;;;6.70;99.90;;;;;;5030363;28;21011;-51
2022/02/14 09:33:36;;;;;;;1.20;1.02;;;6.70;99.90;;;;;;5024847;28;20573;-52
2022/02/14 09:36:06;;;;;;;1.13;1.02;;;6.70;99.90;;;;;;5022033;28;20198;-52
2022/02/14 09:38:35;;;;;;;2.10;1.42;;;6.70;99.90;;;;;;5042055;28;20247;-52
2022/02/14 09:41:05;;;;;;;1.05;0.93;;;6.70;99.90;;;;;;5031314;28;20302;-52
2022/02/14 09:43:37;;;;;;;1.35;1.25;;;6.70;99.90;;;;;;5020683;28;20252;-54
2022/02/14 09:46:07;;;;;;;1.48;1.35;;;6.70;99.90;;;;;;5035844;28;20181;-54
2022/02/14 09:48:39;;;;;;;1.70;1.30;;;6.70;99.90;;;;;;5030769;28;20217;-52
2022/02/14 09:51:08;;;;;;;1.30;1.20;;;6.70;99.90;;;;;;5020510;28;20291;-52
2022/02/14 09:53:37;;;;;;;1.30;1.20;;;6.70;99.90;;;;;;5045836;28;20291;-53
2022/02/14 09:56:12;;;;;;;1.60;1.15;;;6.70;99.90;;;;;;5047076;28;20195;-53
2022/02/14 09:58:41;;;;;;;1.50;1.25;;;6.70;99.90;;;;;;5034157;28;20603;-50
2022/02/14 10:01:10;;;;;;;1.25;0.90;;;6.70;99.90;;;;;;5051279;28;20326;-51
2022/02/14 10:03:50;;;;;;;2.63;1.20;;;6.70;99.90;;;;;;5029419;28;20220;-54
2022/02/14 10:06:28;;;;;;;1.92;1.23;;;6.70;99.90;;;;;;5020364;28;20280;-52
2022/02/14 10:09:08;;;;;;;1.33;1.23;;;6.70;99.90;;;;;;5045947;28;20218;-53
2022/02/14 10:11:42;;;;;;;1.73;1.25;;;6.70;99.90;;;;;;5040529;28;20190;-54
2022/02/14 10:14:19;;;;;;;1.63;1.52;;;6.70;99.90;;;;;;5024956;28;20651;-51
2022/02/14 10:17:06;;;;;;;1.20;1.10;;;6.70;99.90;;;;;;5031650;28;20679;-53
2022/02/14 10:19:45;;;;;;;1.75;1.05;;;6.70;99.90;;;;;;5019989;28;20249;-52
2022/02/14 10:22:14;;;;;;;1.42;1.33;;;6.70;99.90;;;;;;5007595;28;20796;-52
2022/02/14 10:24:45;;;;;;;1.77;0.90;;;6.70;99.90;;;;;;5011172;28;20201;-52
2022/02/14 10:27:15;;;;;;;1.10;1.00;;;6.70;99.90;;;;;;5010851;28;20341;-53
2022/02/14 10:29:47;;;;;;;1.67;0.98;;;6.70;99.90;;;;;;5019651;28;20266;-53
2022/02/14 10:32:24;;;;;;;1.08;0.90;;;6.70;99.90;;;;;;5030066;28;20264;-51
2022/02/14 10:34:59;;;;;;;1.50;1.35;;;6.80;99.90;;;;;;5029352;28;20204;-53
2022/02/14 10:37:40;;;;;;;1.23;1.13;;;6.70;99.90;;;;;;5029961;28;20267;-52
2022/02/14 10:40:25;;;;;;;1.50;1.40;;;6.80;99.90;;;;;;5029867;28;20217;-55
2022/02/14 10:42:56;;;;;;;1.10;0.80;;;6.80;99.90;;;;;;5030039;28;20224;-50
2022/02/14 10:45:26;;;;;;;1.85;1.23;;;6.80;99.90;;;;;;5011675;28;20202;-51
2022/02/14 10:47:56;;;;;;;0.93;0.80;;;6.80;99.90;;;;;;5024101;28;20225;-53
2022/02/14 10:50:28;;;;;;;2.30;1.05;;;6.80;99.90;;;;;;5011466;28;20205;-52
2022/02/14 10:53:00;;;;;;;1.67;1.40;;;6.80;99.90;;;;;;5028032;28;20213;-53
2022/02/14 10:55:33;;;;;;;1.25;1.15;;;6.80;99.90;;;;;;5030272;28;20193;-54
2022/02/14 10:58:03;;;;;;;1.30;1.15;;;6.80;99.90;;;;;;5023836;28;20260;-53
2022/02/14 11:00:34;;;;;;;2.10;2.00;;;6.80;99.90;;;;;;5027095;28;20209;-53
2022/02/14 11:03:06;;;;;;;1.00;0.90;;;6.80;99.90;;;;;;5027646;28;20224;-53
2022/02/14 11:05:38;;;;;;;1.30;0.95;;;6.80;99.90;;;;;;5010855;28;20208;-51
2022/02/14 11:08:10;;;;;;;1.33;0.95;;;6.80;99.90;;;;;;5007335;28;20846;-52
2022/02/14 11:10:44;;;;;;;1.13;1.02;;;6.80;99.90;;;;;;5010851;28;20202;-53
2022/02/14 11:13:14;;;;;;;1.67;0.80;;;6.80;99.90;;;;;;5008473;28;20241;-51
2022/02/14 11:15:47;;;;;;;1.45;1.10;;;6.90;99.90;;;;;;4992218;28;20233;-52
2022/02/14 11:18:19;;;;;;;1.10;1.00;;;6.90;99.90;;;;;;5010414;28;20221;-52
2022/02/14 11:20:50;;;;;;;2.13;0.90;;;6.90;99.90;;;;;;5010284;28;20233;-53
2022/02/14 11:23:23;;;;;;;1.73;1.35;;;6.90;99.90;;;;;;5010311;28;20280;-52
2022/02/14 11:26:00;;;;;;;1.63;1.00;;;6.90;99.90;;;;;;5010146;28;20289;-53
2022/02/14 11:28:38;;;;;;;1.15;1.00;;;6.90;99.90;;;;;;5024819;28;20707;-53
2022/02/14 11:31:10;;;;;;;1.20;1.10;;;6.90;99.90;;;;;;5029987;28;20212;-52
2022/02/14 11:33:43;;;;;;;1.02;0.90;;;6.90;99.90;;;;;;5026617;28;20222;-51
2022/02/14 11:36:13;;;;;;;1.25;1.10;;;6.90;99.90;;;;;;5020126;28;20186;-50
2022/02/14 11:38:47;;;;;;;1.20;1.00;;;6.90;99.90;;;;;;5043884;28;20218;-54
2022/02/14 11:41:32;;;;;;;0.80;0.80;;;6.90;99.90;;;;;;5032716;28;20754;-52
2022/02/14 11:44:20;;;;;;;1.35;1.20;;;6.90;99.90;;;;;;5014561;28;20677;-52
2022/02/14 11:47:11;;;;;;;1.00;0.90;;;6.90;99.90;;;;;;5049358;28;20204;-51
2022/02/14 11:49:41;;;;;;;2.10;1.23;;;6.90;99.90;;;;;;5033433;28;20252;-52
2022/02/14 11:52:39;;;;;;;1.10;1.00;;;6.90;99.90;;;;;;5029517;28;20212;-52
2022/02/14 11:55:28;;;;;;;2.03;0.65;;;6.90;99.90;;;;;;5042397;28;20197;-52
2022/02/14 11:57:58;;;;;;;1.35;0.90;;;6.90;99.90;;;;;;5011386;28;20224;-52
2022/02/14 12:00:27;;;;;;;1.10;0.90;;;6.90;99.90;;;;;;5029631;28;20233;-51
2022/02/14 12:03:00;;;;;;;1.98;1.17;;;6.90;99.90;;;;;;5029345;28;20707;-52
2022/02/14 12:05:39;;;;;;;1.30;1.10;;;6.90;99.90;;;;;;5010968;28;20438;-52
2022/02/14 12:08:08;;;;;;;1.10;1.00;;;6.90;99.90;;;;;;5023719;28;20282;-53
2022/02/14 12:10:48;;;;;;;2.30;1.10;;;6.90;99.90;;;;;;5011231;28;20297;-51
2022/02/14 12:13:23;;;;;;;1.30;0.73;;;6.90;99.90;;;;;;5015903;28;20216;-51
2022/02/14 12:21:50;;;;;;;1.67;0.88;;;6.90;99.90;;;;;;5018128;28;20230;-54
2022/02/14 12:24:21;;;;;;;1.15;1.00;;;6.90;99.90;;;;;;5027147;28;20419;-51
2022/02/14 12:26:53;;;;;;;1.42;1.17;;;6.90;99.90;;;;;;5011074;28;20197;-53
2022/02/14 12:29:35;;;;;;;2.03;0.80;;;6.90;99.90;;;;;;5033952;28;20216;-52
2022/02/14 12:32:10;;;;;;;1.40;1.10;;;6.90;99.90;;;;;;5036955;28;20284;-53
2022/02/14 12:34:40;;;;;;;3.25;1.50;;;6.90;99.90;;;;;;5036065;28;20212;-53
2022/02/14 12:37:16;;;;;;;1.15;0.95;;;6.90;99.90;;;;;;5041040;28;20181;-52
2022/02/14 12:39:49;;;;;;;1.13;1.05;;;6.90;99.90;;;;;;5039638;28;20303;-52
2022/02/14 12:42:22;;;;;;;1.88;1.17;;;6.90;99.90;;;;;;5009843;28;20232;-53
2022/02/14 12:44:54;;;;;;;1.95;1.13;;;6.90;99.90;;;;;;5008678;28;20212;-52
2022/02/14 12:47:26;;;;;;;1.23;1.05;;;6.90;99.90;;;;;;5025524;28;20224;-52
2022/02/14 12:50:11;;;;;;;1.00;0.90;;;7.00;99.90;;;;;;5015073;28;20245;-50
2022/02/14 12:52:43;;;;;;;1.48;1.10;;;6.90;99.90;;;;;;5029865;28;20251;-53
2022/02/14 12:55:13;;;;;;;0.90;0.90;;;7.00;99.90;;;;;;5028659;28;20224;-52
2022/02/14 12:57:45;;;;;;;2.60;0.90;;;7.00;99.90;;;;;;5037554;28;20226;-52
2022/02/14 13:00:27;;;;;;;1.23;0.90;;;7.00;99.90;;;;;;5009257;28;20214;-52
2022/02/14 13:02:58;;;;;;;2.50;0.95;;;6.90;99.90;;;;;;5024236;28;20263;-52
2022/02/14 13:05:31;;;;;;;2.20;1.17;;;7.00;99.90;;;;;;4990600;28;20197;-55
2022/02/14 13:08:01;;;;;;;1.70;0.90;;;7.00;99.90;;;;;;5024985;28;20445;-53
2022/02/14 13:10:31;;;;;;;1.00;1.00;;;7.10;99.90;;;;;;5028767;28;20990;-51
2022/02/14 13:13:01;;;;;;;1.20;1.08;;;7.10;99.90;;;;;;5020237;28;20241;-52
2022/02/14 13:15:31;;;;;;;1.80;0.88;;;7.00;99.90;;;;;;5027970;28;20669;-53
2022/02/14 13:18:07;;;;;;;4.22;0.90;;;7.10;99.90;;;;;;5029704;28;20224;-49
2022/02/14 13:20:39;;;;;;;1.23;1.13;;;7.10;99.90;;;;;;5013143;28;20311;-52